Washta, Iowa
Current Conditions -  °F | °C
As of 6:55 PM on Saturday 25 Oct 2014 (Local Time) from KCKP Reporting Station
Clear Clear  
Wind Chill: 14°   Ceiling: Unl
Heat Index: 14°   Visibility: 10mi
Dew Point:   Wind: 3mph
Humidity: 42%   Direction: 50°NE
Pressure: 30.06"   Gusts: NA
Location:  42.58°N, 95.72°W
Report Text: KCKP 252355Z AUTO 05003KT 10SM CLR 14/01 A3006 RMK AO2 T01430014 10200 20135
Loading
Personal Weather Stations






























Interactive Weather Map
Tropical Storm Tracking
New forecast layout! Learn more

10-Day Weather Forecast

Advertisements
Track Severe Weather on mobile